sensor_id;sensor_type;location;lat;lon;timestamp;temperature;humidity
65884;HTU21D;52663;51.038;5.858;2022-08-05T00:01:33;22.43;70.75
65884;HTU21D;52663;51.038;5.858;2022-08-05T00:03:59;22.34;71.03
65884;HTU21D;52663;51.038;5.858;2022-08-05T00:06:25;22.31;71.22
65884;HTU21D;52663;51.038;5.858;2022-08-05T00:08:51;22.25;71.41
65884;HTU21D;52663;51.038;5.858;2022-08-05T00:11:17;22.26;71.55
65884;HTU21D;52663;51.038;5.858;2022-08-05T00:13:44;22.28;71.51
65884;HTU21D;52663;51.038;5.858;2022-08-05T00:16:12;22.29;71.64
65884;HTU21D;52663;51.038;5.858;2022-08-05T00:18:41;22.26;71.48
65884;HTU21D;52663;51.038;5.858;2022-08-05T00:21:08;22.27;71.61
65884;HTU21D;52663;51.038;5.858;2022-08-05T00:23:35;22.24;71.77
65884;HTU21D;52663;51.038;5.858;2022-08-05T00:26:01;22.23;71.87
65884;HTU21D;52663;51.038;5.858;2022-08-05T00:28:26;22.26;71.72
65884;HTU21D;52663;51.038;5.858;2022-08-05T00:30:52;22.23;71.75
65884;HTU21D;52663;51.038;5.858;2022-08-05T00:33:18;22.23;71.72
65884;HTU21D;52663;51.038;5.858;2022-08-05T00:35:44;22.17;72.06
65884;HTU21D;52663;51.038;5.858;2022-08-05T00:38:09;22.17;72.02
65884;HTU21D;52663;51.038;5.858;2022-08-05T00:40:46;22.17;71.97
65884;HTU21D;52663;51.038;5.858;2022-08-05T00:43:12;22.14;72.06
65884;HTU21D;52663;51.038;5.858;2022-08-05T00:45:38;22.12;71.90
65884;HTU21D;52663;51.038;5.858;2022-08-05T00:48:03;21.99;72.31
65884;HTU21D;52663;51.038;5.858;2022-08-05T00:50:29;21.88;72.80
65884;HTU21D;52663;51.038;5.858;2022-08-05T00:52:55;21.80;73.14
65884;HTU21D;52663;51.038;5.858;2022-08-05T00:55:21;21.76;73.32
65884;HTU21D;52663;51.038;5.858;2022-08-05T00:57:47;21.72;73.75
65884;HTU21D;52663;51.038;5.858;2022-08-05T01:00:13;21.80;73.93
65884;HTU21D;52663;51.038;5.858;2022-08-05T01:02:39;21.88;73.54
65884;HTU21D;52663;51.038;5.858;2022-08-05T01:05:05;21.93;72.93
65884;HTU21D;52663;51.038;5.858;2022-08-05T01:07:31;21.88;73.07
65884;HTU21D;52663;51.038;5.858;2022-08-05T01:09:57;21.87;73.13
65884;HTU21D;52663;51.038;5.858;2022-08-05T01:12:24;21.90;73.34
65884;HTU21D;52663;51.038;5.858;2022-08-05T01:14:58;21.93;73.25
65884;HTU21D;52663;51.038;5.858;2022-08-05T01:17:51;22.04;72.91
65884;HTU21D;52663;51.038;5.858;2022-08-05T01:20:48;22.17;72.38
65884;HTU21D;52663;51.038;5.858;2022-08-05T01:23:47;22.23;72.17
65884;HTU21D;52663;51.038;5.858;2022-08-05T01:26:24;22.29;71.83
65884;HTU21D;52663;51.038;5.858;2022-08-05T01:29:03;22.34;71.87
65884;HTU21D;52663;51.038;5.858;2022-08-05T01:34:17;22.35;72.29
65884;HTU21D;52663;51.038;5.858;2022-08-05T01:39:30;22.35;72.18
65884;HTU21D;52663;51.038;5.858;2022-08-05T01:41:58;22.37;72.02
65884;HTU21D;52663;51.038;5.858;2022-08-05T01:44:26;22.27;72.32
65884;HTU21D;52663;51.038;5.858;2022-08-05T01:46:54;22.32;72.61
65884;HTU21D;52663;51.038;5.858;2022-08-05T01:49:21;22.38;72.49
65884;HTU21D;52663;51.038;5.858;2022-08-05T01:51:53;22.40;72.45
65884;HTU21D;52663;51.038;5.858;2022-08-05T01:54:22;22.39;72.56
65884;HTU21D;52663;51.038;5.858;2022-08-05T01:56:52;22.40;72.18
65884;HTU21D;52663;51.038;5.858;2022-08-05T01:59:23;22.22;72.51
65884;HTU21D;52663;51.038;5.858;2022-08-05T02:01:53;22.06;73.56
65884;HTU21D;52663;51.038;5.858;2022-08-05T02:04:23;22.06;73.65
65884;HTU21D;52663;51.038;5.858;2022-08-05T02:06:51;22.07;73.73
65884;HTU21D;52663;51.038;5.858;2022-08-05T02:09:17;22.08;73.83
65884;HTU21D;52663;51.038;5.858;2022-08-05T02:14:21;21.95;73.90
65884;HTU21D;52663;51.038;5.858;2022-08-05T02:16:53;21.87;74.42
65884;HTU21D;52663;51.038;5.858;2022-08-05T02:19:24;21.85;74.76
65884;HTU21D;52663;51.038;5.858;2022-08-05T02:25:06;21.94;74.91
65884;HTU21D;52663;51.038;5.858;2022-08-05T02:27:36;21.98;74.99
65884;HTU21D;52663;51.038;5.858;2022-08-05T02:30:03;22.04;74.96
65884;HTU21D;52663;51.038;5.858;2022-08-05T02:32:32;22.08;74.69
65884;HTU21D;52663;51.038;5.858;2022-08-05T02:35:02;22.10;74.11
65884;HTU21D;52663;51.038;5.858;2022-08-05T02:37:32;22.08;73.93
65884;HTU21D;52663;51.038;5.858;2022-08-05T02:40:00;21.97;74.03
65884;HTU21D;52663;51.038;5.858;2022-08-05T02:42:27;21.94;74.22
65884;HTU21D;52663;51.038;5.858;2022-08-05T02:44:56;21.95;74.73
65884;HTU21D;52663;51.038;5.858;2022-08-05T02:47:24;22.01;74.73
65884;HTU21D;52663;51.038;5.858;2022-08-05T02:49:51;22.07;74.75
65884;HTU21D;52663;51.038;5.858;2022-08-05T02:52:18;22.14;74.49
65884;HTU21D;52663;51.038;5.858;2022-08-05T02:54:46;22.16;74.31
65884;HTU21D;52663;51.038;5.858;2022-08-05T02:57:15;22.17;73.90
65884;HTU21D;52663;51.038;5.858;2022-08-05T02:59:44;22.18;73.98
65884;HTU21D;52663;51.038;5.858;2022-08-05T03:02:14;22.16;73.92
65884;HTU21D;52663;51.038;5.858;2022-08-05T03:04:43;22.16;73.77
65884;HTU21D;52663;51.038;5.858;2022-08-05T03:07:10;22.14;73.79
65884;HTU21D;52663;51.038;5.858;2022-08-05T03:09:39;22.09;73.82
65884;HTU21D;52663;51.038;5.858;2022-08-05T03:12:07;22.07;73.79
65884;HTU21D;52663;51.038;5.858;2022-08-05T03:14:33;22.04;74.14
65884;HTU21D;52663;51.038;5.858;2022-08-05T03:16:59;22.06;74.00
65884;HTU21D;52663;51.038;5.858;2022-08-05T03:19:25;22.06;74.27
65884;HTU21D;52663;51.038;5.858;2022-08-05T03:21:51;22.11;73.96
65884;HTU21D;52663;51.038;5.858;2022-08-05T03:24:20;22.12;74.18
65884;HTU21D;52663;51.038;5.858;2022-08-05T03:26:46;22.19;73.71
65884;HTU21D;52663;51.038;5.858;2022-08-05T03:29:12;22.17;73.67
65884;HTU21D;52663;51.038;5.858;2022-08-05T03:31:39;22.11;73.72
65884;HTU21D;52663;51.038;5.858;2022-08-05T03:34:05;22.06;74.06
65884;HTU21D;52663;51.038;5.858;2022-08-05T03:36:31;21.98;74.47
65884;HTU21D;52663;51.038;5.858;2022-08-05T03:38:57;21.95;74.73
65884;HTU21D;52663;51.038;5.858;2022-08-05T03:41:23;22.02;74.93
65884;HTU21D;52663;51.038;5.858;2022-08-05T03:43:49;22.08;74.52
65884;HTU21D;52663;51.038;5.858;2022-08-05T03:46:14;22.11;74.36
65884;HTU21D;52663;51.038;5.858;2022-08-05T03:48:40;22.16;74.29
65884;HTU21D;52663;51.038;5.858;2022-08-05T03:51:23;22.22;74.16
65884;HTU21D;52663;51.038;5.858;2022-08-05T03:54:09;22.22;73.23
65884;HTU21D;52663;51.038;5.858;2022-08-05T03:56:43;22.12;73.48
65884;HTU21D;52663;51.038;5.858;2022-08-05T03:59:13;22.07;74.12
65884;HTU21D;52663;51.038;5.858;2022-08-05T04:01:45;22.06;74.22
65884;HTU21D;52663;51.038;5.858;2022-08-05T04:04:14;22.10;74.47
65884;HTU21D;52663;51.038;5.858;2022-08-05T04:06:41;22.13;74.20
65884;HTU21D;52663;51.038;5.858;2022-08-05T04:09:08;22.13;74.24
65884;HTU21D;52663;51.038;5.858;2022-08-05T04:11:36;22.10;74.10
65884;HTU21D;52663;51.038;5.858;2022-08-05T04:14:03;22.04;74.22
65884;HTU21D;52663;51.038;5.858;2022-08-05T04:16:31;21.97;74.61
65884;HTU21D;52663;51.038;5.858;2022-08-05T04:18:57;21.91;75.02
65884;HTU21D;52663;51.038;5.858;2022-08-05T04:21:24;21.94;75.28
65884;HTU21D;52663;51.038;5.858;2022-08-05T04:23:50;22.03;75.18
65884;HTU21D;52663;51.038;5.858;2022-08-05T04:26:16;22.13;74.91
65884;HTU21D;52663;51.038;5.858;2022-08-05T04:28:41;22.14;74.76
65884;HTU21D;52663;51.038;5.858;2022-08-05T04:31:07;22.16;74.75
65884;HTU21D;52663;51.038;5.858;2022-08-05T04:33:33;22.09;74.60
65884;HTU21D;52663;51.038;5.858;2022-08-05T04:35:59;21.91;75.24
65884;HTU21D;52663;51.038;5.858;2022-08-05T04:38:24;21.78;75.83
65884;HTU21D;52663;51.038;5.858;2022-08-05T04:40:50;21.69;76.24
65884;HTU21D;52663;51.038;5.858;2022-08-05T04:43:16;21.69;76.50
65884;HTU21D;52663;51.038;5.858;2022-08-05T04:45:42;21.69;76.55
65884;HTU21D;52663;51.038;5.858;2022-08-05T04:48:13;21.73;76.78
65884;HTU21D;52663;51.038;5.858;2022-08-05T04:50:45;21.83;76.40
65884;HTU21D;52663;51.038;5.858;2022-08-05T04:53:13;21.85;76.24
65884;HTU21D;52663;51.038;5.858;2022-08-05T04:55:40;21.91;75.96
65884;HTU21D;52663;51.038;5.858;2022-08-05T04:58:11;21.96;75.68
65884;HTU21D;52663;51.038;5.858;2022-08-05T05:00:38;21.92;75.41
65884;HTU21D;52663;51.038;5.858;2022-08-05T05:03:05;21.87;75.41
65884;HTU21D;52663;51.038;5.858;2022-08-05T05:05:32;21.78;75.73
65884;HTU21D;52663;51.038;5.858;2022-08-05T05:08:03;21.76;76.01
65884;HTU21D;52663;51.038;5.858;2022-08-05T05:10:30;21.83;75.86
65884;HTU21D;52663;51.038;5.858;2022-08-05T05:12:56;21.83;75.72
65884;HTU21D;52663;51.038;5.858;2022-08-05T05:15:23;21.83;75.31
65884;HTU21D;52663;51.038;5.858;2022-08-05T05:17:49;21.70;75.76
65884;HTU21D;52663;51.038;5.858;2022-08-05T05:20:15;21.57;75.95
65884;HTU21D;52663;51.038;5.858;2022-08-05T05:22:41;21.31;76.86
65884;HTU21D;52663;51.038;5.858;2022-08-05T05:25:07;21.21;77.47
65884;HTU21D;52663;51.038;5.858;2022-08-05T05:27:34;21.18;77.70
65884;HTU21D;52663;51.038;5.858;2022-08-05T05:30:01;21.18;77.77
65884;HTU21D;52663;51.038;5.858;2022-08-05T05:32:28;21.17;77.83
65884;HTU21D;52663;51.038;5.858;2022-08-05T05:34:54;21.18;77.67
65884;HTU21D;52663;51.038;5.858;2022-08-05T05:37:20;21.17;77.47
65884;HTU21D;52663;51.038;5.858;2022-08-05T05:39:45;21.18;77.28
65884;HTU21D;52663;51.038;5.858;2022-08-05T05:42:11;21.18;77.65
65884;HTU21D;52663;51.038;5.858;2022-08-05T05:44:37;21.19;77.68
65884;HTU21D;52663;51.038;5.858;2022-08-05T05:47:03;21.25;77.37
65884;HTU21D;52663;51.038;5.858;2022-08-05T05:49:29;21.25;76.87
65884;HTU21D;52663;51.038;5.858;2022-08-05T05:51:54;21.09;77.17
65884;HTU21D;52663;51.038;5.858;2022-08-05T05:54:20;21.00;77.54
65884;HTU21D;52663;51.038;5.858;2022-08-05T05:56:46;20.94;77.80
65884;HTU21D;52663;51.038;5.858;2022-08-05T05:59:12;20.91;77.92
65884;HTU21D;52663;51.038;5.858;2022-08-05T06:01:39;20.92;78.21
65884;HTU21D;52663;51.038;5.858;2022-08-05T06:04:11;20.98;77.63
65884;HTU21D;52663;51.038;5.858;2022-08-05T06:06:37;20.94;77.63
65884;HTU21D;52663;51.038;5.858;2022-08-05T06:09:04;20.96;77.15
65884;HTU21D;52663;51.038;5.858;2022-08-05T06:11:31;20.91;77.07
65884;HTU21D;52663;51.038;5.858;2022-08-05T06:13:58;20.86;76.47
65884;HTU21D;52663;51.038;5.858;2022-08-05T06:16:24;20.75;76.66
65884;HTU21D;52663;51.038;5.858;2022-08-05T06:18:50;20.65;77.10
65884;HTU21D;52663;51.038;5.858;2022-08-05T06:21:17;20.64;77.08
65884;HTU21D;52663;51.038;5.858;2022-08-05T06:23:43;20.62;77.07
65884;HTU21D;52663;51.038;5.858;2022-08-05T06:26:09;20.58;76.92
65884;HTU21D;52663;51.038;5.858;2022-08-05T06:28:35;20.58;77.01
65884;HTU21D;52663;51.038;5.858;2022-08-05T06:31:01;20.64;76.76
65884;HTU21D;52663;51.038;5.858;2022-08-05T06:33:28;20.65;76.26
65884;HTU21D;52663;51.038;5.858;2022-08-05T06:35:54;20.63;76.21
65884;HTU21D;52663;51.038;5.858;2022-08-05T06:38:20;20.62;75.95
65884;HTU21D;52663;51.038;5.858;2022-08-05T06:40:45;20.59;76.08
65884;HTU21D;52663;51.038;5.858;2022-08-05T06:43:12;20.55;75.86
65884;HTU21D;52663;51.038;5.858;2022-08-05T06:45:39;20.51;75.82
65884;HTU21D;52663;51.038;5.858;2022-08-05T06:48:04;20.42;75.60
65884;HTU21D;52663;51.038;5.858;2022-08-05T06:50:30;20.33;75.65
65884;HTU21D;52663;51.038;5.858;2022-08-05T06:52:56;20.21;75.84
65884;HTU21D;52663;51.038;5.858;2022-08-05T06:55:22;20.19;76.12
65884;HTU21D;52663;51.038;5.858;2022-08-05T06:57:47;20.22;76.17
65884;HTU21D;52663;51.038;5.858;2022-08-05T07:00:13;20.20;75.79
65884;HTU21D;52663;51.038;5.858;2022-08-05T07:02:46;20.15;75.89
65884;HTU21D;52663;51.038;5.858;2022-08-05T07:05:13;20.15;76.15
65884;HTU21D;52663;51.038;5.858;2022-08-05T07:07:39;20.15;76.16
65884;HTU21D;52663;51.038;5.858;2022-08-05T07:10:09;20.18;76.01
65884;HTU21D;52663;51.038;5.858;2022-08-05T07:12:35;20.19;76.15
65884;HTU21D;52663;51.038;5.858;2022-08-05T07:15:19;20.28;76.34
65884;HTU21D;52663;51.038;5.858;2022-08-05T07:18:04;20.37;76.26
65884;HTU21D;52663;51.038;5.858;2022-08-05T07:20:30;20.47;75.84
65884;HTU21D;52663;51.038;5.858;2022-08-05T07:22:56;20.59;75.08
65884;HTU21D;52663;51.038;5.858;2022-08-05T07:25:21;20.61;74.82
65884;HTU21D;52663;51.038;5.858;2022-08-05T07:27:52;20.69;73.83
65884;HTU21D;52663;51.038;5.858;2022-08-05T07:30:18;20.69;73.94
65884;HTU21D;52663;51.038;5.858;2022-08-05T07:32:44;20.70;73.81
65884;HTU21D;52663;51.038;5.858;2022-08-05T07:35:12;20.64;73.48
65884;HTU21D;52663;51.038;5.858;2022-08-05T07:37:39;20.63;73.17
65884;HTU21D;52663;51.038;5.858;2022-08-05T07:40:06;20.57;73.32
65884;HTU21D;52663;51.038;5.858;2022-08-05T07:42:32;20.53;73.34
65884;HTU21D;52663;51.038;5.858;2022-08-05T07:44:58;20.50;73.71
65884;HTU21D;52663;51.038;5.858;2022-08-05T07:47:25;20.49;73.72
65884;HTU21D;52663;51.038;5.858;2022-08-05T07:49:50;20.40;73.44
65884;HTU21D;52663;51.038;5.858;2022-08-05T07:52:18;20.39;74.02
65884;HTU21D;52663;51.038;5.858;2022-08-05T07:54:44;20.49;74.20
65884;HTU21D;52663;51.038;5.858;2022-08-05T07:57:10;20.55;73.76
65884;HTU21D;52663;51.038;5.858;2022-08-05T07:59:36;20.57;73.79
65884;HTU21D;52663;51.038;5.858;2022-08-05T08:02:01;20.62;73.67
65884;HTU21D;52663;51.038;5.858;2022-08-05T08:04:28;20.70;74.08
65884;HTU21D;52663;51.038;5.858;2022-08-05T08:06:54;20.69;74.07
65884;HTU21D;52663;51.038;5.858;2022-08-05T08:09:23;20.74;73.58
65884;HTU21D;52663;51.038;5.858;2022-08-05T08:11:49;20.81;73.90
65884;HTU21D;52663;51.038;5.858;2022-08-05T08:14:15;20.91;73.83
65884;HTU21D;52663;51.038;5.858;2022-08-05T08:16:41;21.05;73.79
65884;HTU21D;52663;51.038;5.858;2022-08-05T08:19:12;21.23;73.44
65884;HTU21D;52663;51.038;5.858;2022-08-05T08:21:38;21.31;72.77
65884;HTU21D;52663;51.038;5.858;2022-08-05T08:24:07;21.37;72.40
65884;HTU21D;52663;51.038;5.858;2022-08-05T08:26:36;21.45;72.38
65884;HTU21D;52663;51.038;5.858;2022-08-05T08:29:05;21.44;71.95
65884;HTU21D;52663;51.038;5.858;2022-08-05T08:31:31;21.51;72.74
65884;HTU21D;52663;51.038;5.858;2022-08-05T08:33:57;21.66;72.48
65884;HTU21D;52663;51.038;5.858;2022-08-05T08:36:23;21.80;71.74
65884;HTU21D;52663;51.038;5.858;2022-08-05T08:38:49;21.93;71.16
65884;HTU21D;52663;51.038;5.858;2022-08-05T08:41:18;22.07;70.56
65884;HTU21D;52663;51.038;5.858;2022-08-05T08:43:45;22.07;70.25
65884;HTU21D;52663;51.038;5.858;2022-08-05T08:46:12;22.11;70.26
65884;HTU21D;52663;51.038;5.858;2022-08-05T08:48:41;22.23;70.21
65884;HTU21D;52663;51.038;5.858;2022-08-05T08:51:10;22.39;69.71
65884;HTU21D;52663;51.038;5.858;2022-08-05T08:53:37;22.61;68.71
65884;HTU21D;52663;51.038;5.858;2022-08-05T08:56:05;22.69;67.68
65884;HTU21D;52663;51.038;5.858;2022-08-05T08:58:31;22.78;67.07
65884;HTU21D;52663;51.038;5.858;2022-08-05T09:00:57;22.70;67.30
65884;HTU21D;52663;51.038;5.858;2022-08-05T09:03:24;22.73;67.49
65884;HTU21D;52663;51.038;5.858;2022-08-05T09:05:50;22.85;66.74
65884;HTU21D;52663;51.038;5.858;2022-08-05T09:08:15;22.90;66.45
65884;HTU21D;52663;51.038;5.858;2022-08-05T09:10:43;22.88;66.07
65884;HTU21D;52663;51.038;5.858;2022-08-05T09:13:13;22.87;65.97
65884;HTU21D;52663;51.038;5.858;2022-08-05T09:15:40;22.95;65.82
65884;HTU21D;52663;51.038;5.858;2022-08-05T09:18:09;22.93;65.80
65884;HTU21D;52663;51.038;5.858;2022-08-05T09:20:38;22.92;65.50
65884;HTU21D;52663;51.038;5.858;2022-08-05T09:23:13;22.87;65.94
65884;HTU21D;52663;51.038;5.858;2022-08-05T09:25:41;22.78;66.10
65884;HTU21D;52663;51.038;5.858;2022-08-05T09:28:21;22.72;66.30
65884;HTU21D;52663;51.038;5.858;2022-08-05T09:30:52;22.73;66.05
65884;HTU21D;52663;51.038;5.858;2022-08-05T09:33:20;22.80;66.46
65884;HTU21D;52663;51.038;5.858;2022-08-05T09:36:03;22.84;66.32
65884;HTU21D;52663;51.038;5.858;2022-08-05T09:38:30;22.97;66.28
65884;HTU21D;52663;51.038;5.858;2022-08-05T09:41:05;23.17;66.30
65884;HTU21D;52663;51.038;5.858;2022-08-05T09:43:34;23.43;64.75
65884;HTU21D;52663;51.038;5.858;2022-08-05T09:46:02;23.45;64.27
65884;HTU21D;52663;51.038;5.858;2022-08-05T09:48:31;23.58;64.09
65884;HTU21D;52663;51.038;5.858;2022-08-05T09:51:03;23.71;63.13
65884;HTU21D;52663;51.038;5.858;2022-08-05T09:53:46;23.83;62.09
65884;HTU21D;52663;51.038;5.858;2022-08-05T09:56:12;23.85;62.65
65884;HTU21D;52663;51.038;5.858;2022-08-05T09:58:38;24.09;61.96
65884;HTU21D;52663;51.038;5.858;2022-08-05T10:01:06;24.28;61.76
65884;HTU21D;52663;51.038;5.858;2022-08-05T10:03:32;24.55;60.69
65884;HTU21D;52663;51.038;5.858;2022-08-05T10:06:03;24.82;60.34
65884;HTU21D;52663;51.038;5.858;2022-08-05T10:08:29;24.93;59.48
65884;HTU21D;52663;51.038;5.858;2022-08-05T10:10:56;24.89;58.42
65884;HTU21D;52663;51.038;5.858;2022-08-05T10:13:34;24.88;58.39
65884;HTU21D;52663;51.038;5.858;2022-08-05T10:16:04;24.84;58.48
65884;HTU21D;52663;51.038;5.858;2022-08-05T10:18:31;24.86;58.69
65884;HTU21D;52663;51.038;5.858;2022-08-05T10:21:00;24.82;57.68
65884;HTU21D;52663;51.038;5.858;2022-08-05T10:23:29;24.71;57.57
65884;HTU21D;52663;51.038;5.858;2022-08-05T10:25:58;24.50;57.90
65884;HTU21D;52663;51.038;5.858;2022-08-05T10:28:24;24.29;58.41
65884;HTU21D;52663;51.038;5.858;2022-08-05T10:30:51;24.23;58.74
65884;HTU21D;52663;51.038;5.858;2022-08-05T10:33:22;24.20;59.35
65884;HTU21D;52663;51.038;5.858;2022-08-05T10:35:51;24.31;59.87
65884;HTU21D;52663;51.038;5.858;2022-08-05T10:38:19;24.72;60.06
65884;HTU21D;52663;51.038;5.858;2022-08-05T10:43:38;26.40;55.73
65884;HTU21D;52663;51.038;5.858;2022-08-05T10:46:11;26.97;52.55
65884;HTU21D;52663;51.038;5.858;2022-08-05T10:48:40;27.06;51.37
65884;HTU21D;52663;51.038;5.858;2022-08-05T10:51:12;26.95;51.04
65884;HTU21D;52663;51.038;5.858;2022-08-05T10:56:17;26.01;52.48
65884;HTU21D;52663;51.038;5.858;2022-08-05T10:59:04;25.50;54.15
65884;HTU21D;52663;51.038;5.858;2022-08-05T11:01:33;25.27;54.90
65884;HTU21D;52663;51.038;5.858;2022-08-05T11:04:15;25.03;56.00
65884;HTU21D;52663;51.038;5.858;2022-08-05T11:09:35;25.14;56.78
65884;HTU21D;52663;51.038;5.858;2022-08-05T11:12:01;25.37;56.50
65884;HTU21D;52663;51.038;5.858;2022-08-05T11:14:30;25.76;55.43
65884;HTU21D;52663;51.038;5.858;2022-08-05T11:19:49;27.26;52.53
65884;HTU21D;52663;51.038;5.858;2022-08-05T11:22:40;28.25;48.92
65884;HTU21D;52663;51.038;5.858;2022-08-05T11:25:37;28.70;46.76
65884;HTU21D;52663;51.038;5.858;2022-08-05T11:33:33;30.41;42.97
65884;HTU21D;52663;51.038;5.858;2022-08-05T11:36:05;31.06;40.70
65884;HTU21D;52663;51.038;5.858;2022-08-05T11:44:06;30.93;39.62
65884;HTU21D;52663;51.038;5.858;2022-08-05T11:46:41;31.02;39.27
65884;HTU21D;52663;51.038;5.858;2022-08-05T11:49:11;30.97;39.27
65884;HTU21D;52663;51.038;5.858;2022-08-05T11:51:51;30.68;39.36
65884;HTU21D;52663;51.038;5.858;2022-08-05T11:54:27;30.16;40.30
65884;HTU21D;52663;51.038;5.858;2022-08-05T11:57:04;29.79;41.19
65884;HTU21D;52663;51.038;5.858;2022-08-05T11:59:31;29.52;41.93
65884;HTU21D;52663;51.038;5.858;2022-08-05T12:02:04;29.70;41.61
65884;HTU21D;52663;51.038;5.858;2022-08-05T12:04:45;29.56;41.59
65884;HTU21D;52663;51.038;5.858;2022-08-05T12:07:13;29.23;42.42
65884;HTU21D;52663;51.038;5.858;2022-08-05T12:09:47;28.89;43.14
65884;HTU21D;52663;51.038;5.858;2022-08-05T12:12:20;28.59;43.71
65884;HTU21D;52663;51.038;5.858;2022-08-05T12:14:47;28.13;44.51
65884;HTU21D;52663;51.038;5.858;2022-08-05T12:17:14;27.50;45.79
65884;HTU21D;52663;51.038;5.858;2022-08-05T12:19:48;27.07;47.73
65884;HTU21D;52663;51.038;5.858;2022-08-05T12:22:19;26.77;48.50
65884;HTU21D;52663;51.038;5.858;2022-08-05T12:24:55;26.41;49.69
65884;HTU21D;52663;51.038;5.858;2022-08-05T12:27:24;26.31;50.55
65884;HTU21D;52663;51.038;5.858;2022-08-05T12:30:08;26.24;50.83
65884;HTU21D;52663;51.038;5.858;2022-08-05T12:32:43;26.08;51.13
65884;HTU21D;52663;51.038;5.858;2022-08-05T12:35:10;25.92;51.17
65884;HTU21D;52663;51.038;5.858;2022-08-05T12:37:41;25.90;51.13
65884;HTU21D;52663;51.038;5.858;2022-08-05T12:40:10;25.96;50.73
65884;HTU21D;52663;51.038;5.858;2022-08-05T12:42:38;25.94;51.01
65884;HTU21D;52663;51.038;5.858;2022-08-05T12:45:05;25.94;50.48
65884;HTU21D;52663;51.038;5.858;2022-08-05T12:47:32;25.89;49.92
65884;HTU21D;52663;51.038;5.858;2022-08-05T12:50:00;25.81;49.84
65884;HTU21D;52663;51.038;5.858;2022-08-05T12:52:26;25.67;49.28
65884;HTU21D;52663;51.038;5.858;2022-08-05T12:54:54;25.49;49.41
65884;HTU21D;52663;51.038;5.858;2022-08-05T12:57:35;25.46;49.93
65884;HTU21D;52663;51.038;5.858;2022-08-05T13:00:01;25.60;49.37
65884;HTU21D;52663;51.038;5.858;2022-08-05T13:02:27;25.73;48.92
65884;HTU21D;52663;51.038;5.858;2022-08-05T13:04:54;25.78;48.94
65884;HTU21D;52663;51.038;5.858;2022-08-05T13:07:24;25.93;48.00
65884;HTU21D;52663;51.038;5.858;2022-08-05T13:09:52;25.95;47.11
65884;HTU21D;52663;51.038;5.858;2022-08-05T13:12:22;25.92;46.86
65884;HTU21D;52663;51.038;5.858;2022-08-05T13:14:52;25.90;46.06
65884;HTU21D;52663;51.038;5.858;2022-08-05T13:17:25;25.94;45.58
65884;HTU21D;52663;51.038;5.858;2022-08-05T13:22:27;26.12;44.29
65884;HTU21D;52663;51.038;5.858;2022-08-05T13:24:53;26.39;43.65
65884;HTU21D;52663;51.038;5.858;2022-08-05T13:27:31;26.77;41.95
65884;HTU21D;52663;51.038;5.858;2022-08-05T13:30:08;26.92;40.65
65884;HTU21D;52663;51.038;5.858;2022-08-05T13:32:35;26.87;40.70
65884;HTU21D;52663;51.038;5.858;2022-08-05T13:35:00;26.96;40.52
65884;HTU21D;52663;51.038;5.858;2022-08-05T13:37:26;26.99;39.81
65884;HTU21D;52663;51.038;5.858;2022-08-05T13:39:53;26.94;39.62
65884;HTU21D;52663;51.038;5.858;2022-08-05T13:42:21;26.79;39.55
65884;HTU21D;52663;51.038;5.858;2022-08-05T13:44:52;26.81;39.65
65884;HTU21D;52663;51.038;5.858;2022-08-05T13:47:18;27.00;39.27
65884;HTU21D;52663;51.038;5.858;2022-08-05T13:49:44;27.25;38.52
65884;HTU21D;52663;51.038;5.858;2022-08-05T13:54:38;27.30;36.78
65884;HTU21D;52663;51.038;5.858;2022-08-05T13:57:04;27.32;36.85
65884;HTU21D;52663;51.038;5.858;2022-08-05T13:59:30;27.32;36.82
65884;HTU21D;52663;51.038;5.858;2022-08-05T14:01:58;27.22;36.71
65884;HTU21D;52663;51.038;5.858;2022-08-05T14:04:28;27.02;36.66
65884;HTU21D;52663;51.038;5.858;2022-08-05T14:07:13;26.80;37.50
65884;HTU21D;52663;51.038;5.858;2022-08-05T14:09:38;26.64;37.91
65884;HTU21D;52663;51.038;5.858;2022-08-05T14:12:05;26.54;38.97
65884;HTU21D;52663;51.038;5.858;2022-08-05T14:14:31;26.75;39.59
65884;HTU21D;52663;51.038;5.858;2022-08-05T14:17:00;26.92;38.90
65884;HTU21D;52663;51.038;5.858;2022-08-05T14:19:28;26.81;38.72
65884;HTU21D;52663;51.038;5.858;2022-08-05T14:21:57;26.63;39.48
65884;HTU21D;52663;51.038;5.858;2022-08-05T14:24:25;26.63;39.71
65884;HTU21D;52663;51.038;5.858;2022-08-05T14:26:57;26.64;40.01
65884;HTU21D;52663;51.038;5.858;2022-08-05T14:29:25;26.48;40.26
65884;HTU21D;52663;51.038;5.858;2022-08-05T14:31:51;26.24;40.61
65884;HTU21D;52663;51.038;5.858;2022-08-05T14:34:17;26.08;40.69
65884;HTU21D;52663;51.038;5.858;2022-08-05T14:36:43;25.98;40.82
65884;HTU21D;52663;51.038;5.858;2022-08-05T14:39:09;25.89;40.38
65884;HTU21D;52663;51.038;5.858;2022-08-05T14:41:35;25.71;40.68
65884;HTU21D;52663;51.038;5.858;2022-08-05T14:44:01;25.65;40.18
65884;HTU21D;52663;51.038;5.858;2022-08-05T14:46:28;25.53;40.71
65884;HTU21D;52663;51.038;5.858;2022-08-05T14:48:56;25.63;40.63
65884;HTU21D;52663;51.038;5.858;2022-08-05T14:51:23;25.88;40.49
65884;HTU21D;52663;51.038;5.858;2022-08-05T14:53:49;26.10;40.05
65884;HTU21D;52663;51.038;5.858;2022-08-05T14:56:15;26.17;39.10
65884;HTU21D;52663;51.038;5.858;2022-08-05T14:58:41;26.15;38.71
65884;HTU21D;52663;51.038;5.858;2022-08-05T15:01:07;26.01;38.43
65884;HTU21D;52663;51.038;5.858;2022-08-05T15:03:38;25.86;38.63
65884;HTU21D;52663;51.038;5.858;2022-08-05T15:06:05;25.79;38.32
65884;HTU21D;52663;51.038;5.858;2022-08-05T15:08:31;25.77;38.71
65884;HTU21D;52663;51.038;5.858;2022-08-05T15:10:56;25.89;38.30
65884;HTU21D;52663;51.038;5.858;2022-08-05T15:13:23;25.96;38.27
65884;HTU21D;52663;51.038;5.858;2022-08-05T15:15:49;26.09;38.08
65884;HTU21D;52663;51.038;5.858;2022-08-05T15:18:15;26.17;37.75
65884;HTU21D;52663;51.038;5.858;2022-08-05T15:20:41;26.27;37.08
65884;HTU21D;52663;51.038;5.858;2022-08-05T15:23:09;26.31;36.40
65884;HTU21D;52663;51.038;5.858;2022-08-05T15:25:37;26.33;35.98
65884;HTU21D;52663;51.038;5.858;2022-08-05T15:28:12;26.38;35.69
65884;HTU21D;52663;51.038;5.858;2022-08-05T15:30:38;26.45;35.91
65884;HTU21D;52663;51.038;5.858;2022-08-05T15:33:07;26.51;35.18
65884;HTU21D;52663;51.038;5.858;2022-08-05T15:35:32;26.53;34.98
65884;HTU21D;52663;51.038;5.858;2022-08-05T15:38:01;26.46;35.02
65884;HTU21D;52663;51.038;5.858;2022-08-05T15:40:29;26.34;35.09
65884;HTU21D;52663;51.038;5.858;2022-08-05T15:43:03;26.30;35.74
65884;HTU21D;52663;51.038;5.858;2022-08-05T15:45:31;26.30;34.77
65884;HTU21D;52663;51.038;5.858;2022-08-05T15:47:57;26.15;34.66
65884;HTU21D;52663;51.038;5.858;2022-08-05T15:50:23;26.09;34.63
65884;HTU21D;52663;51.038;5.858;2022-08-05T15:52:49;26.10;34.77
65884;HTU21D;52663;51.038;5.858;2022-08-05T15:55:15;26.06;34.92
65884;HTU21D;52663;51.038;5.858;2022-08-05T15:57:42;26.02;34.44
65884;HTU21D;52663;51.038;5.858;2022-08-05T16:00:09;25.93;34.64
65884;HTU21D;52663;51.038;5.858;2022-08-05T16:02:36;25.90;34.98